Time;durP1;ratioP1;P1;durP2;ratioP2;P2;SDS_P1;SDS_P2;PMS_P1;PMS_P2;Temp;Humidity;BMP_temperature;BMP_pressure;BME280_temperature;BME280_humidity;BME280_pressure;Samples;Min_cycle;Max_cycle;Signal;HPM_P1;HPM_P2
2024/04/10 00:02:21;;;;;;;3.00;1.58;;;460.80;1587.20;;;;;;5419067;26;20004;-75
2024/04/10 00:04:55;;;;;;;5.38;1.70;;;460.80;1612.80;;;;;;5418916;26;19999;-75
2024/04/10 00:07:21;;;;;;;3.75;1.55;;;460.80;1612.80;;;;;;5419071;26;20069;-75
2024/04/10 00:09:46;;;;;;;6.10;2.55;;;460.80;1612.80;;;;;;5419121;26;20003;-75
2024/04/10 00:12:12;;;;;;;2.75;1.48;;;460.80;1612.80;;;;;;5419118;26;20065;-76
2024/04/10 00:14:39;;;;;;;5.22;1.50;;;460.80;1612.80;;;;;;5419073;26;20430;-75
2024/04/10 00:17:05;;;;;;;8.68;1.92;;;436.10;1587.20;;;;;;5418857;26;20013;-76
2024/04/10 00:19:31;;;;;;;8.82;1.95;;;436.10;1587.20;;;;;;5417564;26;20010;-75
2024/04/10 00:21:56;;;;;;;4.13;1.70;;;436.10;1587.20;;;;;;5418630;26;19994;-75
2024/04/10 00:24:22;;;;;;;2.70;1.38;;;436.10;1587.20;;;;;;5418600;26;20464;-75
2024/04/10 00:26:49;;;;;;;3.00;1.55;;;436.10;1587.20;;;;;;5417096;26;19999;-76
2024/04/10 00:29:15;;;;;;;6.63;1.60;;;435.80;1587.20;;;;;;5418709;26;19996;-75
2024/04/10 00:31:42;;;;;;;3.33;1.60;;;436.10;1587.20;;;;;;5417375;26;20005;-76
2024/04/10 00:34:08;;;;;;;7.18;1.38;;;436.10;1587.20;;;;;;5418843;26;20003;-76
2024/04/10 00:36:34;;;;;;;2.78;1.38;;;435.30;1612.80;;;;;;5418590;26;20003;-77
2024/04/10 00:38:59;;;;;;;2.17;1.35;;;436.00;1612.80;;;;;;5418661;26;20002;-76
2024/04/10 00:41:25;;;;;;;3.10;1.50;;;436.00;1612.80;;;;;;5419072;26;20316;-76
2024/04/10 00:43:51;;;;;;;6.15;1.70;;;436.10;1612.80;;;;;;5418403;26;19992;-75
2024/04/10 00:46:22;;;;;;;7.47;1.55;;;436.10;1612.80;;;;;;5418544;26;20007;-77
2024/04/10 00:48:49;;;;;;;4.80;1.70;;;436.10;1612.80;;;;;;5416595;26;19992;-75
2024/04/10 00:51:25;;;;;;;3.65;1.40;;;460.80;1638.40;;;;;;5416761;26;20011;-76
2024/04/10 00:53:51;;;;;;;2.13;1.27;;;460.80;1638.40;;;;;;5418097;26;19996;-77
2024/04/10 00:56:17;;;;;;;5.43;1.67;;;436.10;1612.80;;;;;;5416614;26;20010;-75
2024/04/10 00:58:43;;;;;;;6.43;1.77;;;436.10;1612.80;;;;;;5418240;26;20449;-75
2024/04/10 01:01:10;;;;;;;4.22;1.70;;;436.10;1612.80;;;;;;5418096;26;20018;-75
2024/04/10 01:03:38;;;;;;;3.65;1.35;;;436.00;1612.80;;;;;;5416018;26;20064;-76
2024/04/10 01:06:05;;;;;;;5.40;1.60;;;436.00;1638.40;;;;;;5416547;26;20010;-77
2024/04/10 01:08:33;;;;;;;3.75;1.58;;;436.10;1638.40;;;;;;5418144;26;20002;-76
2024/04/10 01:11:02;;;;;;;6.65;1.33;;;461.20;1664.00;;;;;;5418310;26;19995;-76
2024/04/10 01:13:29;;;;;;;6.90;1.60;;;435.90;1638.40;;;;;;5418351;26;20007;-76
2024/04/10 01:15:55;;;;;;;5.20;1.80;;;435.80;1664.00;;;;;;5418156;26;20439;-76
2024/04/10 01:18:22;;;;;;;3.67;1.60;;;435.80;1664.00;;;;;;5418219;26;19991;-76
2024/04/10 01:20:49;;;;;;;3.55;1.90;;;435.80;1664.00;;;;;;5418114;26;20208;-75
2024/04/10 01:23:18;;;;;;;2.70;1.60;;;435.80;1689.60;;;;;;5417451;26;19991;-75
2024/04/10 01:27:00;;;;;;;3.70;1.42;;;435.80;1664.00;;;;;;5471789;26;20438;-76
2024/04/10 01:29:26;;;;;;;6.82;1.40;;;435.80;1689.60;;;;;;5436588;26;20435;-78
2024/04/10 01:31:52;;;;;;;3.28;1.60;;;435.90;1664.00;;;;;;5436258;26;20319;-77
2024/04/10 01:34:17;;;;;;;3.53;1.42;;;435.90;1664.00;;;;;;5434441;26;20000;-76
2024/04/10 01:36:43;;;;;;;3.83;1.50;;;435.90;1689.60;;;;;;5433222;26;20041;-76
2024/04/10 01:39:09;;;;;;;3.85;1.90;;;435.80;1689.60;;;;;;5434442;26;20315;-77
2024/04/10 01:41:35;;;;;;;2.28;1.30;;;435.90;1689.60;;;;;;5435929;26;20443;-76
2024/04/10 01:44:01;;;;;;;6.32;1.85;;;435.80;1689.60;;;;;;5434045;26;20018;-77
2024/04/10 01:46:27;;;;;;;3.78;1.73;;;435.80;1689.60;;;;;;5435845;26;20352;-76
2024/04/10 01:48:53;;;;;;;2.22;1.40;;;435.90;1689.60;;;;;;5436290;26;20004;-76
2024/04/10 01:51:18;;;;;;;5.57;1.40;;;435.80;1715.20;;;;;;5435893;26;19995;-76
2024/04/10 01:53:44;;;;;;;3.85;1.40;;;435.80;1715.20;;;;;;5434113;26;20003;-77
2024/04/10 01:56:10;;;;;;;4.05;1.55;;;435.80;1715.20;;;;;;5435808;26;20002;-76
2024/04/10 01:58:36;;;;;;;3.97;1.63;;;435.70;1715.20;;;;;;5436049;26;20000;-78
2024/04/10 02:01:03;;;;;;;6.13;1.90;;;435.60;1715.20;;;;;;5435794;26;19995;-76
2024/04/10 02:03:28;;;;;;;2.70;1.50;;;435.50;1715.20;;;;;;5435770;26;20014;-77
2024/04/10 02:05:54;;;;;;;4.25;1.60;;;435.30;1740.80;;;;;;5436065;26;20446;-76
2024/04/10 02:08:20;;;;;;;5.35;1.55;;;435.30;1740.80;;;;;;5434248;26;20014;-76
2024/04/10 02:10:46;;;;;;;4.55;1.65;;;435.30;1740.80;;;;;;5435683;26;20006;-76
2024/04/10 02:13:12;;;;;;;3.95;1.30;;;435.40;1715.20;;;;;;5435787;26;20047;-76
2024/04/10 02:15:37;;;;;;;13.52;2.08;;;435.50;1740.80;;;;;;5434019;26;20450;-77
2024/04/10 02:18:04;;;;;;;4.65;2.03;;;435.50;1740.80;;;;;;5436011;26;19995;-77
2024/04/10 02:20:30;;;;;;;7.25;1.73;;;435.60;1740.80;;;;;;5435944;26;19992;-78
2024/04/10 02:22:56;;;;;;;3.28;1.20;;;435.60;1740.80;;;;;;5433811;26;19995;-76
2024/04/10 02:25:22;;;;;;;3.72;1.38;;;435.60;1740.80;;;;;;5435028;26;19991;-76
2024/04/10 02:27:48;;;;;;;5.68;1.38;;;435.50;1740.80;;;;;;5435620;26;20006;-76
2024/04/10 02:30:14;;;;;;;6.43;1.40;;;435.30;1740.80;;;;;;5433811;26;19991;-77
2024/04/10 02:32:40;;;;;;;3.15;1.65;;;435.30;1766.40;;;;;;5435540;26;20098;-77
2024/04/10 02:35:05;;;;;;;3.90;1.88;;;435.30;1740.80;;;;;;5433947;26;19999;-77
2024/04/10 02:37:31;;;;;;;5.00;1.35;;;435.30;1766.40;;;;;;5423830;26;19992;-76
2024/04/10 02:39:58;;;;;;;10.80;1.88;;;435.30;1766.40;;;;;;5418083;26;20003;-78
2024/04/10 02:42:24;;;;;;;6.40;1.77;;;410.50;1766.40;;;;;;5420086;26;20381;-76
2024/04/10 02:44:51;;;;;;;12.00;3.53;;;410.50;1792.00;;;;;;5418193;26;20019;-76
2024/04/10 02:47:18;;;;;;;10.90;3.63;;;410.40;1792.00;;;;;;5420332;26;19999;-76
2024/04/10 02:49:44;;;;;;;9.77;3.20;;;410.30;1817.60;;;;;;5420007;26;20002;-77
2024/04/10 02:52:10;;;;;;;10.68;3.33;;;410.20;1817.60;;;;;;5417102;26;19999;-76
2024/04/10 02:54:35;;;;;;;8.90;3.00;;;410.20;1817.60;;;;;;5417689;26;20469;-77
2024/04/10 02:57:01;;;;;;;8.80;2.92;;;410.10;1817.60;;;;;;5419782;26;19992;-77
2024/04/10 02:59:27;;;;;;;10.07;3.80;;;410.10;1843.20;;;;;;5419577;26;20011;-78
2024/04/10 03:01:53;;;;;;;9.07;4.43;;;410.00;1843.20;;;;;;5419692;26;20401;-77
2024/04/10 03:04:19;;;;;;;10.85;4.05;;;409.90;1843.20;;;;;;5419832;26;20125;-76
2024/04/10 03:06:44;;;;;;;13.88;4.93;;;409.80;1843.20;;;;;;5419919;26;19992;-76
2024/04/10 03:09:10;;;;;;;13.73;3.78;;;409.80;1843.20;;;;;;5419505;26;20009;-76
2024/04/10 03:11:36;;;;;;;9.93;3.85;;;409.70;1868.80;;;;;;5419606;26;20334;-76
2024/04/10 03:14:02;;;;;;;15.57;3.72;;;409.70;1868.80;;;;;;5419919;26;19996;-76
2024/04/10 03:16:29;;;;;;;6.30;2.70;;;409.80;1868.80;;;;;;5419715;26;19995;-76
2024/04/10 03:18:55;;;;;;;3.33;1.70;;;409.80;1868.80;;;;;;5419764;26;19995;-76
2024/04/10 03:21:21;;;;;;;7.75;2.40;;;409.70;1868.80;;;;;;5417578;26;20003;-77
2024/04/10 03:23:47;;;;;;;9.82;2.78;;;409.70;1868.80;;;;;;5419661;26;20000;-77
2024/04/10 03:26:13;;;;;;;9.25;1.90;;;384.90;1868.80;;;;;;5418947;26;19998;-77
2024/04/10 03:28:40;;;;;;;4.97;1.55;;;384.70;1894.40;;;;;;5419566;26;20041;-77
2024/04/10 03:31:07;;;;;;;4.63;1.65;;;384.70;1894.40;;;;;;5416729;26;19999;-77
2024/04/10 03:33:34;;;;;;;6.45;2.08;;;384.70;1920.00;;;;;;5419604;26;20028;-77
2024/04/10 03:36:00;;;;;;;7.35;1.98;;;384.80;1894.40;;;;;;5419469;26;20014;-77
2024/04/10 03:38:26;;;;;;;8.18;1.92;;;384.90;1894.40;;;;;;5419769;26;20424;-76
2024/04/10 03:40:52;;;;;;;9.35;1.90;;;409.60;1945.60;;;;;;5419064;26;19995;-77
2024/04/10 03:43:17;;;;;;;7.13;1.83;;;409.70;1945.60;;;;;;5418256;26;20338;-77
2024/04/10 03:45:45;;;;;;;12.43;1.80;;;409.80;1920.00;;;;;;5419102;26;19992;-77
2024/04/10 03:48:11;;;;;;;5.85;1.63;;;409.90;1920.00;;;;;;5419293;26;20004;-77
2024/04/10 03:50:37;;;;;;;7.15;2.00;;;409.90;1920.00;;;;;;5418544;26;20006;-77
2024/04/10 03:53:05;;;;;;;9.18;1.90;;;409.90;1920.00;;;;;;5416285;26;19999;-76
2024/04/10 03:55:30;;;;;;;6.40;2.40;;;409.80;1945.60;;;;;;5418705;26;20032;-77
2024/04/10 03:57:56;;;;;;;7.35;1.75;;;409.70;1945.60;;;;;;5419193;26;20001;-77
2024/04/10 04:00:22;;;;;;;16.83;2.65;;;409.70;1945.60;;;;;;5418749;26;20040;-77
2024/04/10 04:02:48;;;;;;;7.88;1.70;;;409.60;1971.20;;;;;;5419068;26;20458;-77
2024/04/10 04:05:14;;;;;;;9.00;3.13;;;409.60;1996.80;;;;;;5419017;26;19991;-77
2024/04/10 04:07:40;;;;;;;12.00;3.72;;;384.90;1996.80;;;;;;5419504;26;20006;-77
2024/04/10 04:10:06;;;;;;;8.20;2.20;;;384.90;2022.40;;;;;;5416949;26;19995;-77
2024/04/10 04:12:32;;;;;;;11.32;2.35;;;384.70;2048.00;;;;;;5418875;26;20064;-77
2024/04/10 04:14:58;;;;;;;11.00;2.25;;;384.60;2048.00;;;;;;5417100;26;20000;-77
2024/04/10 04:17:24;;;;;;;6.28;2.45;;;384.40;2048.00;;;;;;5418889;26;20327;-77
2024/04/10 04:19:50;;;;;;;8.18;2.10;;;384.40;2073.60;;;;;;5416932;26;20028;-77
2024/04/10 04:22:16;;;;;;;18.23;3.00;;;384.50;2048.00;;;;;;5419101;26;19999;-77
2024/04/10 04:24:42;;;;;;;4.38;1.70;;;384.40;2048.00;;;;;;5416450;26;19995;-77
2024/04/10 04:27:08;;;;;;;4.00;1.75;;;384.40;2073.60;;;;;;5416403;26;20347;-77
2024/04/10 04:29:34;;;;;;;6.45;1.98;;;384.40;2073.60;;;;;;5415991;26;20006;-77
2024/04/10 04:32:00;;;;;;;6.72;2.35;;;384.30;2124.80;;;;;;5403661;26;19996;-77
2024/04/10 04:34:25;;;;;;;12.30;2.95;;;384.40;2124.80;;;;;;5398327;26;20042;-76
2024/04/10 04:36:51;;;;;;;13.57;2.40;;;384.40;2124.80;;;;;;5393811;26;20014;-77
2024/04/10 04:39:18;;;;;;;29.02;4.38;;;384.40;2124.80;;;;;;5403616;26;20004;-77
2024/04/10 04:41:44;;;;;;;10.52;2.08;;;384.40;2150.40;;;;;;5400965;26;20004;-76
2024/04/10 04:44:11;;;;;;;12.35;2.13;;;384.20;2150.40;;;;;;5403142;26;20019;-77
2024/04/10 04:46:37;;;;;;;6.95;2.53;;;384.00;2150.40;;;;;;5401020;26;20027;-77
2024/04/10 04:49:03;;;;;;;4.78;1.83;;;359.30;2201.60;;;;;;5397754;26;19991;-76
2024/04/10 04:51:29;;;;;;;5.32;1.83;;;384.00;2227.20;;;;;;5411825;26;20008;-77
2024/04/10 04:53:54;;;;;;;7.22;2.38;;;384.00;2227.20;;;;;;5407211;26;20011;-77
2024/04/10 04:56:20;;;;;;;6.75;3.30;;;384.10;2201.60;;;;;;5397576;26;20004;-76
2024/04/10 04:58:46;;;;;;;8.35;3.15;;;384.10;2201.60;;;;;;5396102;26;20444;-76
2024/04/10 05:01:12;;;;;;;31.38;5.80;;;384.20;2201.60;;;;;;5382177;26;20027;-77
2024/04/10 05:06:22;;;;;;;13.27;3.33;;;384.30;2227.20;;;;;;5389353;26;20007;-76
2024/04/10 05:08:48;;;;;;;5.75;2.20;;;384.40;2252.80;;;;;;5402627;26;19991;-77
2024/04/10 05:11:14;;;;;;;8.88;2.10;;;384.70;2304.00;;;;;;5396005;26;20000;-77
2024/04/10 05:13:40;;;;;;;6.40;2.25;;;384.90;2304.00;;;;;;5406064;26;20007;-76
2024/04/10 05:16:06;;;;;;;10.30;2.17;;;409.70;2329.60;;;;;;5390844;26;19996;-77
2024/04/10 05:18:32;;;;;;;8.23;2.92;;;409.90;2355.20;;;;;;5396807;26;20452;-76
2024/04/10 05:20:58;;;;;;;9.02;2.45;;;410.00;2355.20;;;;;;5404249;26;20013;-77
2024/04/10 05:23:24;;;;;;;7.90;2.88;;;410.30;2355.20;;;;;;5404490;26;20000;-75
2024/04/10 05:25:52;;;;;;;6.03;1.95;;;435.20;2355.20;;;;;;5399208;26;20000;-76
2024/04/10 05:28:18;;;;;;;4.10;2.08;;;435.30;2329.60;;;;;;5393486;26;20008;-76
2024/04/10 05:30:44;;;;;;;6.30;2.47;;;435.50;2355.20;;;;;;5407447;26;19996;-75
2024/04/10 05:33:10;;;;;;;5.30;2.20;;;435.70;2252.80;;;;;;5399022;26;20006;-76
2024/04/10 05:35:36;;;;;;;7.50;2.60;;;435.80;2252.80;;;;;;5396226;26;20007;-76
2024/04/10 05:38:01;;;;;;;3.70;1.80;;;436.00;2252.80;;;;;;5390507;26;20375;-75
2024/04/10 05:40:27;;;;;;;6.70;2.08;;;436.10;2201.60;;;;;;5401086;26;19995;-77
2024/04/10 05:42:53;;;;;;;11.88;3.35;;;460.90;2150.40;;;;;;5386109;26;20015;-76
2024/04/10 05:45:19;;;;;;;6.88;1.67;;;461.00;2150.40;;;;;;5396609;26;20388;-75
2024/04/10 05:47:50;;;;;;;4.88;2.20;;;461.10;2073.60;;;;;;5392141;26;20000;-75
2024/04/10 05:50:16;;;;;;;8.18;2.20;;;461.30;2099.20;;;;;;5385830;26;19997;-79
2024/04/10 05:52:42;;;;;;;6.88;2.03;;;461.50;2048.00;;;;;;5392383;26;20000;-77
2024/04/10 05:55:09;;;;;;;3.83;1.77;;;461.70;2022.40;;;;;;5405332;26;19993;-77
2024/04/10 05:57:35;;;;;;;6.07;2.40;;;461.70;1996.80;;;;;;5396257;26;20069;-77
2024/04/10 06:00:03;;;;;;;10.00;1.90;;;486.50;1971.20;;;;;;5400554;26;20007;-75
2024/04/10 06:02:29;;;;;;;4.78;1.80;;;486.60;1996.80;;;;;;5390422;26;20074;-77
2024/04/10 06:04:55;;;;;;;5.47;1.90;;;486.80;1920.00;;;;;;5407342;26;20045;-77
2024/04/10 06:07:21;;;;;;;4.28;2.15;;;487.00;1868.80;;;;;;5384205;26;20011;-76
2024/04/10 06:09:58;;;;;;;5.25;2.00;;;487.10;1868.80;;;;;;5382719;26;20014;-76
2024/04/10 06:12:24;;;;;;;4.70;1.70;;;487.20;1817.60;;;;;;5405612;26;20066;-77
2024/04/10 06:14:53;;;;;;;4.72;2.03;;;487.20;1766.40;;;;;;5397322;26;20392;-76
2024/04/10 06:17:22;;;;;;;5.55;1.77;;;512.00;1766.40;;;;;;5406883;26;20004;-75
2024/04/10 06:19:51;;;;;;;3.67;1.63;;;512.20;1766.40;;;;;;5390644;26;19992;-76
2024/04/10 06:22:17;;;;;;;4.55;1.45;;;512.30;1740.80;;;;;;5394795;26;20004;-76
2024/04/10 06:24:44;;;;;;;8.75;2.33;;;512.50;1740.80;;;;;;5404385;26;20014;-74
2024/04/10 06:27:11;;;;;;;7.00;2.40;;;512.70;1715.20;;;;;;5405091;26;19992;-75
2024/04/10 06:29:45;;;;;;;8.50;1.75;;;512.90;1689.60;;;;;;5385241;26;20012;-77
2024/04/10 06:32:12;;;;;;;4.15;1.67;;;537.60;1715.20;;;;;;5396698;26;20015;-77
2024/04/10 06:34:38;;;;;;;4.53;1.70;;;537.70;1689.60;;;;;;5386848;26;20011;-74
2024/04/10 06:37:06;;;;;;;3.13;1.70;;;;;;;;;;5391044;26;20029;-76
2024/04/10 06:39:32;;;;;;;5.10;2.05;;;537.90;1664.00;;;;;;5388238;26;20285;-76
2024/04/10 06:41:58;;;;;;;5.47;2.10;;;538.00;1638.40;;;;;;5396836;26;19996;-75
2024/04/10 06:44:24;;;;;;;6.47;2.00;;;538.20;1612.80;;;;;;5408545;26;20000;-76
2024/04/10 06:46:51;;;;;;;9.20;2.28;;;538.40;1561.60;;;;;;5392573;26;20467;-75
2024/04/10 06:49:17;;;;;;;7.20;2.25;;;563.20;1612.80;;;;;;5407564;26;20334;-75
2024/04/10 06:51:42;;;;;;;5.50;2.50;;;563.30;1561.60;;;;;;5399126;26;19996;-77
2024/04/10 06:54:08;;;;;;;8.25;2.30;;;563.40;1561.60;;;;;;5400318;26;20074;-78
2024/04/10 06:56:34;;;;;;;3.92;2.08;;;563.70;1587.20;;;;;;5406338;26;20080;-76
2024/04/10 06:59:01;;;;;;;9.25;3.15;;;563.70;1561.60;;;;;;5395026;26;20004;-75
2024/04/10 07:01:27;;;;;;;6.25;2.60;;;563.90;1536.00;;;;;;5391127;26;20324;-76
2024/04/10 07:03:52;;;;;;;10.20;2.42;;;588.90;1510.40;;;;;;5403094;26;20004;-75
2024/04/10 07:06:19;;;;;;;11.50;2.22;;;589.00;1459.20;;;;;;5396384;26;20427;-75
2024/04/10 07:08:49;;;;;;;5.18;2.22;;;589.10;1433.60;;;;;;5402580;26;19992;-75
2024/04/10 07:11:22;;;;;;;12.45;2.58;;;589.20;1408.00;;;;;;5394174;26;19997;-79
2024/04/10 07:13:50;;;;;;;5.95;2.20;;;589.30;1433.60;;;;;;5439873;26;20333;-78
2024/04/10 07:16:16;;;;;;;13.90;2.38;;;589.50;1433.60;;;;;;5403452;26;20000;-75
2024/04/10 07:18:43;;;;;;;7.72;1.75;;;589.70;1382.40;;;;;;5403187;26;20003;-76
2024/04/10 07:21:12;;;;;;;8.93;2.10;;;589.70;1356.80;;;;;;5395271;26;20447;-75
2024/04/10 07:23:39;;;;;;;8.07;2.20;;;614.40;1356.80;;;;;;5395501;26;20008;-78
2024/04/10 07:26:20;;;;;;;4.85;1.90;;;614.50;1356.80;;;;;;5392279;26;20518;-75
2024/04/10 07:28:52;;;;;;;3.70;1.73;;;614.70;1331.20;;;;;;5389860;26;19996;-75
2024/04/10 07:31:22;;;;;;;17.33;2.25;;;614.80;1331.20;;;;;;5411413;26;19995;-76
2024/04/10 07:33:49;;;;;;;4.55;1.90;;;614.90;1331.20;;;;;;5395813;26;20003;-76
2024/04/10 07:36:18;;;;;;;11.70;2.00;;;615.00;1280.00;;;;;;5403290;26;20004;-75
2024/04/10 07:38:45;;;;;;;7.85;2.40;;;615.10;1305.60;;;;;;5400171;26;19996;-74
2024/04/10 07:41:12;;;;;;;5.38;2.10;;;615.20;1254.40;;;;;;5398014;26;20000;-74
2024/04/10 07:43:39;;;;;;;5.57;2.30;;;640.10;1280.00;;;;;;5389621;26;20447;-75
2024/04/10 07:46:12;;;;;;;11.93;2.17;;;640.10;1254.40;;;;;;5407940;26;19999;-76
2024/04/10 07:48:40;;;;;;;9.60;3.13;;;640.30;1254.40;;;;;;5398932;26;19992;-75
2024/04/10 07:51:07;;;;;;;7.05;1.90;;;640.50;1254.40;;;;;;5387967;26;20032;-77
2024/04/10 07:53:35;;;;;;;13.80;3.17;;;640.60;1203.20;;;;;;5407425;26;20011;-75
2024/04/10 07:56:02;;;;;;;3.95;1.90;;;665.60;1254.40;;;;;;5390965;26;20008;-74
2024/04/10 07:58:28;;;;;;;4.40;1.88;;;665.60;1228.80;;;;;;5389854;26;20382;-74
2024/04/10 08:00:58;;;;;;;3.53;1.95;;;665.80;1228.80;;;;;;5387829;26;20000;-76
2024/04/10 08:03:25;;;;;;;4.20;1.63;;;665.70;1177.60;;;;;;5388153;26;20002;-77
2024/04/10 08:05:55;;;;;;;5.25;2.17;;;665.70;1228.80;;;;;;5408798;26;20003;-75
2024/04/10 08:08:22;;;;;;;5.63;1.95;;;665.90;1203.20;;;;;;5398317;26;19992;-75
2024/04/10 08:10:55;;;;;;;3.08;1.50;;;665.90;1177.60;;;;;;5388339;26;20016;-75
2024/04/10 08:13:21;;;;;;;7.38;1.90;;;666.00;1177.60;;;;;;5393818;26;20004;-76
2024/04/10 08:15:59;;;;;;;5.50;1.70;;;666.40;1177.60;;;;;;5394734;26;20069;-76
2024/04/10 08:18:26;;;;;;;6.60;2.15;;;666.40;1152.00;;;;;;5403854;26;20031;-76
2024/04/10 08:21:00;;;;;;;11.60;2.00;;;666.30;1152.00;;;;;;5399067;26;20019;-75
2024/04/10 08:23:30;;;;;;;2.85;1.58;;;691.40;1177.60;;;;;;5389452;26;20443;-74
2024/04/10 08:25:57;;;;;;;6.63;2.10;;;691.30;1152.00;;;;;;5396400;26;20058;-74
2024/04/10 08:28:26;;;;;;;4.95;1.48;;;691.60;1152.00;;;;;;5391607;26;19997;-74
2024/04/10 08:30:54;;;;;;;4.55;2.00;;;691.70;1100.80;;;;;;5399504;26;19996;-76
2024/04/10 08:33:20;;;;;;;8.18;2.00;;;691.80;1126.40;;;;;;5381787;26;20012;-75
2024/04/10 08:35:59;;;;;;;4.38;1.58;;;691.70;1100.80;;;;;;5384058;26;20408;-74
2024/04/10 08:38:25;;;;;;;7.50;2.10;;;691.90;1126.40;;;;;;5390783;26;20005;-74
2024/04/10 08:40:53;;;;;;;5.40;2.50;;;691.80;1100.80;;;;;;5395558;26;19999;-76
2024/04/10 08:43:23;;;;;;;7.28;2.10;;;691.80;1126.40;;;;;;5395428;26;20451;-75
2024/04/10 08:45:49;;;;;;;8.43;1.90;;;691.80;1100.80;;;;;;5394589;26;20000;-74
2024/04/10 08:48:19;;;;;;;6.13;2.22;;;716.80;1100.80;;;;;;5394840;26;19996;-74
2024/04/10 08:50:49;;;;;;;10.30;4.53;;;716.90;1100.80;;;;;;5413306;26;20043;-75
2024/04/10 08:53:17;;;;;;;10.98;2.35;;;717.10;1100.80;;;;;;5399455;26;19996;-76
2024/04/10 08:55:43;;;;;;;9.77;2.08;;;717.10;1126.40;;;;;;5384599;26;20015;-75
2024/04/10 08:58:09;;;;;;;3.95;2.10;;;716.90;1100.80;;;;;;5388562;26;20004;-75
2024/04/10 09:00:53;;;;;;;6.93;1.90;;;716.90;1075.20;;;;;;5394496;26;20004;-76
2024/04/10 09:03:19;;;;;;;7.53;1.83;;;717.00;1049.60;;;;;;5387609;26;19996;-75
2024/04/10 09:05:45;;;;;;;4.80;2.15;;;717.50;1100.80;;;;;;5401235;26;20425;-73
2024/04/10 09:08:11;;;;;;;3.03;2.00;;;717.50;1075.20;;;;;;5386862;26;20435;-75
2024/04/10 09:10:36;;;;;;;4.57;1.77;;;742.40;1100.80;;;;;;5402694;26;20018;-75
2024/04/10 09:13:06;;;;;;;4.13;1.58;;;742.40;1075.20;;;;;;5402628;26;20450;-75
2024/04/10 09:15:33;;;;;;;5.43;1.70;;;742.60;1075.20;;;;;;5393198;26;20011;-75
2024/04/10 09:17:59;;;;;;;7.68;2.08;;;742.50;1049.60;;;;;;5390860;26;20441;-75
2024/04/10 09:20:24;;;;;;;5.55;3.00;;;742.60;1075.20;;;;;;5391430;26;19996;-75
2024/04/10 09:23:08;;;;;;;6.72;2.17;;;742.60;1075.20;;;;;;5397190;26;20007;-75
2024/04/10 09:25:37;;;;;;;5.68;2.28;;;742.60;1049.60;;;;;;5389017;26;20004;-74
2024/04/10 09:28:05;;;;;;;5.10;2.13;;;742.80;1049.60;;;;;;5387643;26;19996;-77
2024/04/10 09:30:35;;;;;;;3.05;1.90;;;743.00;1049.60;;;;;;5383718;26;20069;-75
2024/04/10 09:33:03;;;;;;;3.72;1.90;;;742.50;1049.60;;;;;;5390566;26;19996;-75
2024/04/10 09:35:30;;;;;;;3.40;1.65;;;742.80;1049.60;;;;;;5387544;26;20003;-75
2024/04/10 09:38:00;;;;;;;4.07;1.73;;;743.00;1049.60;;;;;;5388539;26;19996;-74
2024/04/10 09:40:28;;;;;;;7.68;2.15;;;743.10;1024.00;;;;;;5396116;26;20011;-74
2024/04/10 09:43:02;;;;;;;7.50;1.60;;;743.30;1024.00;;;;;;5395300;26;20026;-76
2024/04/10 09:45:36;;;;;;;4.87;2.27;;;743.10;1024.00;;;;;;5394129;26;20023;-76
2024/04/10 09:48:08;;;;;;;9.45;2.60;;;768.10;998.40;;;;;;5393702;26;20336;-79
2024/04/10 09:50:36;;;;;;;4.70;2.22;;;768.20;1024.00;;;;;;5394674;26;20008;-76
2024/04/10 09:53:07;;;;;;;4.30;2.35;;;768.10;972.80;;;;;;5395580;26;20000;-76
2024/04/10 09:55:34;;;;;;;2.17;1.52;;;768.60;998.40;;;;;;5385714;26;20000;-75
2024/04/10 09:58:04;;;;;;;7.85;2.10;;;768.40;972.80;;;;;;5399408;26;20448;-77
2024/04/10 10:00:31;;;;;;;3.47;1.95;;;768.40;972.80;;;;;;5396543;26;20010;-76
2024/04/10 10:03:10;;;;;;;5.28;1.80;;;768.40;972.80;;;;;;5393653;26;19996;-78
2024/04/10 10:05:36;;;;;;;5.10;2.10;;;768.40;998.40;;;;;;5387631;26;20000;-76
2024/04/10 10:08:04;;;;;;;5.70;2.20;;;768.70;998.40;;;;;;5386936;26;20059;-77
2024/04/10 10:10:30;;;;;;;5.07;2.03;;;793.60;972.80;;;;;;5390638;26;20015;-76
2024/04/10 10:13:06;;;;;;;4.57;2.20;;;793.70;998.40;;;;;;5406805;26;20000;-76
2024/04/10 10:15:32;;;;;;;4.30;2.30;;;793.70;972.80;;;;;;5410066;26;19996;-77
2024/04/10 10:17:58;;;;;;;6.07;2.00;;;793.70;972.80;;;;;;5390696;26;20073;-76
2024/04/10 10:20:24;;;;;;;8.65;2.05;;;793.80;972.80;;;;;;5401236;26;20000;-76
2024/04/10 10:23:01;;;;;;;6.97;2.10;;;793.80;998.40;;;;;;5396253;26;20011;-76
2024/04/10 10:25:27;;;;;;;8.10;2.25;;;794.10;972.80;;;;;;5388531;26;20007;-76
2024/04/10 10:28:10;;;;;;;11.57;2.13;;;794.00;972.80;;;;;;5396016;26;20525;-77
2024/04/10 10:30:36;;;;;;;5.57;2.05;;;794.10;972.80;;;;;;5391141;26;20000;-77
2024/04/10 10:33:06;;;;;;;5.10;2.22;;;794.20;998.40;;;;;;5392678;26;19996;-77
2024/04/10 10:35:32;;;;;;;7.47;1.85;;;794.50;998.40;;;;;;5402400;26;20018;-76
2024/04/10 10:38:01;;;;;;;6.88;2.00;;;819.30;921.60;;;;;;5392009;26;20011;-74
2024/04/10 10:40:27;;;;;;;4.68;1.90;;;819.50;947.20;;;;;;5400461;26;20000;-77
2024/04/10 10:43:04;;;;;;;5.22;2.25;;;819.20;947.20;;;;;;5392435;26;20007;-76
2024/04/10 10:45:34;;;;;;;3.15;1.92;;;794.40;947.20;;;;;;5401626;26;19999;-76
2024/04/10 10:48:04;;;;;;;3.28;2.17;;;794.30;972.80;;;;;;5397493;26;20006;-75
2024/04/10 10:50:31;;;;;;;5.05;1.98;;;819.50;921.60;;;;;;5398340;26;20007;-73
2024/04/10 10:52:57;;;;;;;7.95;2.97;;;819.50;947.20;;;;;;5390465;26;19997;-75
2024/04/10 10:55:24;;;;;;;5.78;2.15;;;819.20;947.20;;;;;;5416745;26;20006;-75
2024/04/10 10:58:04;;;;;;;4.68;1.77;;;819.50;947.20;;;;;;5399339;26;20455;-74
2024/04/10 11:00:31;;;;;;;4.88;2.25;;;819.50;921.60;;;;;;5401197;26;20062;-77
2024/04/10 11:03:10;;;;;;;3.80;1.70;;;819.20;921.60;;;;;;5395700;26;20007;-73
2024/04/10 11:05:36;;;;;;;3.85;2.00;;;819.30;921.60;;;;;;5404647;26;20319;-76
2024/04/10 11:08:03;;;;;;;5.07;2.33;;;819.50;921.60;;;;;;5402341;26;20011;-76
2024/04/10 11:10:29;;;;;;;5.80;1.73;;;819.70;896.00;;;;;;5402278;26;20000;-75
2024/04/10 11:13:02;;;;;;;7.28;2.05;;;819.60;947.20;;;;;;5388422;26;20073;-76
2024/04/10 11:15:28;;;;;;;5.32;2.25;;;819.60;921.60;;;;;;5398288;26;20008;-76
2024/04/10 11:18:04;;;;;;;4.95;1.95;;;819.60;921.60;;;;;;5387116;26;20440;-77
2024/04/10 11:20:31;;;;;;;7.20;2.15;;;819.60;896.00;;;;;;5396158;26;20007;-76
2024/04/10 11:23:01;;;;;;;4.97;1.83;;;844.80;972.80;;;;;;5401244;26;19999;-75
2024/04/10 11:25:30;;;;;;;5.53;2.20;;;845.20;947.20;;;;;;5388131;26;20442;-77
2024/04/10 11:27:57;;;;;;;3.17;1.88;;;845.40;896.00;;;;;;5390580;26;20067;-77
2024/04/10 11:30:24;;;;;;;6.07;2.38;;;845.20;921.60;;;;;;5417607;26;20024;-75
2024/04/10 11:32:51;;;;;;;4.75;2.03;;;844.90;972.80;;;;;;5403745;26;20072;-74
2024/04/10 11:35:17;;;;;;;10.02;2.22;;;820.00;896.00;;;;;;5400459;26;20010;-75
2024/04/10 11:37:43;;;;;;;3.67;2.13;;;820.10;896.00;;;;;;5390493;26;19993;-76
2024/04/10 11:40:12;;;;;;;7.93;2.53;;;820.10;870.40;;;;;;5398138;26;20007;-76
2024/04/10 11:42:38;;;;;;;5.43;2.10;;;820.10;896.00;;;;;;5403118;26;20007;-76
2024/04/10 11:45:07;;;;;;;8.85;1.80;;;819.90;870.40;;;;;;5390943;26;20016;-74
2024/04/10 11:47:34;;;;;;;9.77;2.10;;;844.90;947.20;;;;;;5405093;26;20011;-74
2024/04/10 11:49:59;;;;;;;6.25;2.35;;;820.00;896.00;;;;;;5390835;26;19996;-73
2024/04/10 11:52:25;;;;;;;5.93;2.50;;;819.80;896.00;;;;;;5394436;26;19996;-74
2024/04/10 11:54:51;;;;;;;8.63;2.00;;;819.80;896.00;;;;;;5398492;26;20000;-74
2024/04/10 11:57:17;;;;;;;5.57;2.67;;;820.10;844.80;;;;;;5387148;26;19996;-74
2024/04/10 11:59:46;;;;;;;5.20;1.77;;;845.20;870.40;;;;;;5389199;26;20020;-74
2024/04/10 12:02:12;;;;;;;5.05;1.83;;;845.20;870.40;;;;;;5400590;26;19996;-72
2024/04/10 12:04:38;;;;;;;4.05;2.10;;;845.40;896.00;;;;;;5394145;26;20000;-76
2024/04/10 12:07:04;;;;;;;8.45;2.10;;;844.90;896.00;;;;;;5396852;26;20004;-73
2024/04/10 12:09:30;;;;;;;4.22;2.00;;;844.90;896.00;;;;;;5408237;26;20000;-73
2024/04/10 12:11:56;;;;;;;6.15;2.10;;;845.20;896.00;;;;;;5392468;26;19996;-74
2024/04/10 12:14:21;;;;;;;5.65;1.90;;;845.10;921.60;;;;;;5402804;26;20004;-73
2024/04/10 12:16:47;;;;;;;8.43;2.03;;;845.20;870.40;;;;;;5385162;26;20155;-78
2024/04/10 12:19:13;;;;;;;4.10;2.00;;;845.10;870.40;;;;;;5389826;26;20004;-76
2024/04/10 12:21:41;;;;;;;4.18;2.05;;;845.60;870.40;;;;;;5390843;26;20013;-75
2024/04/10 12:24:07;;;;;;;5.72;2.10;;;845.20;896.00;;;;;;5385976;26;20028;-75